Time;durP1;ratioP1;P1;durP2;ratioP2;P2;SDS_P1;SDS_P2;PMS_P1;PMS_P2;Temp;Humidity;BMP_temperature;BMP_pressure;BME280_temperature;BME280_humidity;BME280_pressure;Samples;Min_cycle;Max_cycle;Signal;HPM_P1;HPM_P2
2022/04/21 00:00:32;;;;;;;4.80;4.30;;;11.40;99.90;;;;;;5019358;28;20230;-76
2022/04/21 00:03:01;;;;;;;4.88;4.50;;;11.30;99.90;;;;;;5021366;28;20195;-76
2022/04/21 00:05:29;;;;;;;4.85;4.40;;;11.30;99.90;;;;;;5018914;28;20278;-76
2022/04/21 00:07:56;;;;;;;4.35;3.97;;;11.30;99.90;;;;;;5021131;28;20310;-77
2022/04/21 00:10:24;;;;;;;3.90;3.60;;;11.30;99.90;;;;;;5019796;28;20575;-76
2022/04/21 00:12:51;;;;;;;7.72;4.90;;;11.30;99.90;;;;;;5025080;28;20250;-77
2022/04/21 00:15:19;;;;;;;5.53;4.18;;;11.20;99.90;;;;;;5019860;28;20579;-77
2022/04/21 00:17:46;;;;;;;4.95;3.45;;;11.10;99.90;;;;;;5021497;28;20618;-76
2022/04/21 00:20:15;;;;;;;3.40;3.10;;;11.00;99.90;;;;;;5020595;28;20253;-75
2022/04/21 00:25:27;;;;;;;2.85;2.65;;;11.00;99.90;;;;;;5016786;28;20291;-76
2022/04/21 00:27:55;;;;;;;2.72;2.30;;;11.00;99.90;;;;;;5020237;28;20235;-76
2022/04/21 00:30:23;;;;;;;2.95;2.67;;;11.00;99.90;;;;;;5020936;28;20208;-76
2022/04/21 00:32:50;;;;;;;2.90;2.53;;;11.10;99.90;;;;;;5022332;28;20588;-76
2022/04/21 00:35:18;;;;;;;3.78;3.47;;;11.10;99.90;;;;;;5021815;28;20224;-76
2022/04/21 00:37:50;;;;;;;4.43;3.80;;;11.00;99.90;;;;;;5023763;28;20257;-76
2022/04/21 00:40:19;;;;;;;7.10;4.00;;;11.00;99.90;;;;;;5021067;28;20199;-76
2022/04/21 00:42:47;;;;;;;6.90;3.40;;;10.90;99.90;;;;;;5018255;28;20249;-76
2022/04/21 00:45:15;;;;;;;3.30;3.00;;;10.80;99.90;;;;;;5025132;28;20244;-76
2022/04/21 00:47:45;;;;;;;3.47;3.17;;;10.80;99.90;;;;;;5020915;28;20207;-76
2022/04/21 00:50:16;;;;;;;3.97;3.00;;;10.70;99.90;;;;;;5024607;28;20531;-76
2022/04/21 00:52:46;;;;;;;3.20;2.90;;;10.70;99.90;;;;;;5023311;28;20508;-76
2022/04/21 00:55:14;;;;;;;3.10;2.90;;;10.70;99.90;;;;;;5022589;28;20211;-75
2022/04/21 00:57:42;;;;;;;2.60;2.40;;;10.70;99.90;;;;;;5021092;28;20226;-76
2022/04/21 01:00:11;;;;;;;2.70;2.40;;;10.70;99.90;;;;;;5024249;28;20690;-76
2022/04/21 01:02:46;;;;;;;2.60;2.17;;;10.70;99.90;;;;;;5023674;28;20728;-76
2022/04/21 01:05:13;;;;;;;2.50;2.30;;;10.70;99.90;;;;;;5023811;28;20729;-75
2022/04/21 01:07:41;;;;;;;2.78;2.55;;;10.80;99.90;;;;;;5021011;28;20227;-75
2022/04/21 01:10:10;;;;;;;3.15;2.85;;;10.80;99.90;;;;;;5024520;28;20282;-76
2022/04/21 01:12:38;;;;;;;2.83;2.63;;;10.80;99.90;;;;;;5017942;28;20219;-76
2022/04/21 01:15:06;;;;;;;5.22;3.28;;;10.80;99.90;;;;;;5020325;28;20573;-77
2022/04/21 01:17:35;;;;;;;3.15;2.55;;;10.70;99.90;;;;;;5021245;28;20227;-76
2022/04/21 01:20:03;;;;;;;5.00;3.40;;;10.70;99.90;;;;;;5022810;28;20204;-76
2022/04/21 01:22:32;;;;;;;3.33;3.03;;;10.70;99.90;;;;;;5020317;28;20212;-76
2022/04/21 01:24:59;;;;;;;8.32;3.38;;;10.70;99.90;;;;;;5020369;28;20228;-76
2022/04/21 01:27:30;;;;;;;3.45;3.15;;;10.60;99.90;;;;;;5023130;28;20215;-77
2022/04/21 01:29:57;;;;;;;2.63;2.42;;;10.60;99.90;;;;;;5021724;28;20222;-76
2022/04/21 01:32:24;;;;;;;2.60;2.40;;;10.60;99.90;;;;;;5018195;28;20246;-77
2022/04/21 01:34:51;;;;;;;2.42;2.22;;;10.60;99.90;;;;;;5022328;28;20208;-77
2022/04/21 01:42:49;;;;;;;2.38;2.17;;;10.70;99.90;;;;;;5029090;28;20223;-76
2022/04/21 01:45:16;;;;;;;2.38;2.10;;;10.60;99.90;;;;;;5028929;28;20235;-76
2022/04/21 01:47:43;;;;;;;2.70;2.50;;;10.60;99.90;;;;;;5026039;28;20228;-76
2022/04/21 01:50:10;;;;;;;2.80;2.60;;;10.60;99.90;;;;;;5025188;28;20202;-76
2022/04/21 01:52:38;;;;;;;2.80;2.60;;;10.60;99.90;;;;;;5027470;28;20328;-76
2022/04/21 01:55:08;;;;;;;2.50;2.30;;;10.60;99.90;;;;;;5029105;28;20285;-76
2022/04/21 01:57:35;;;;;;;2.60;2.40;;;10.60;99.90;;;;;;5024511;28;20269;-76
2022/04/21 02:00:04;;;;;;;2.55;2.35;;;10.50;99.90;;;;;;5024760;28;20238;-76
2022/04/21 02:02:32;;;;;;;2.60;2.40;;;10.50;99.90;;;;;;5019809;28;20218;-76
2022/04/21 02:05:00;;;;;;;2.40;2.25;;;10.50;99.90;;;;;;5023919;28;21915;-76
2022/04/21 02:07:27;;;;;;;2.20;2.00;;;10.50;99.90;;;;;;5027382;28;20251;-76
2022/04/21 02:09:55;;;;;;;2.40;2.20;;;10.50;99.90;;;;;;5026113;28;20195;-76
2022/04/21 02:12:24;;;;;;;3.10;2.90;;;10.50;99.90;;;;;;5022398;28;20414;-76
2022/04/21 02:14:52;;;;;;;3.15;2.72;;;10.50;99.90;;;;;;5022997;28;20262;-77
2022/04/21 02:17:19;;;;;;;2.45;2.25;;;10.40;99.90;;;;;;5027493;28;20254;-76
2022/04/21 02:19:46;;;;;;;2.22;2.13;;;10.40;99.90;;;;;;5022397;28;20204;-75
2022/04/21 02:22:13;;;;;;;2.83;2.58;;;10.40;99.90;;;;;;5023752;28;20222;-76
2022/04/21 02:24:41;;;;;;;2.70;2.50;;;10.40;99.90;;;;;;5021054;28;20219;-76
2022/04/21 02:27:08;;;;;;;2.55;2.17;;;10.40;99.90;;;;;;5025946;28;20306;-76
2022/04/21 02:29:37;;;;;;;2.80;2.60;;;10.40;99.90;;;;;;5022509;28;20199;-77
2022/04/21 02:32:04;;;;;;;3.20;2.90;;;10.40;99.90;;;;;;5024861;28;20301;-77
2022/04/21 02:34:32;;;;;;;2.55;2.38;;;10.40;99.90;;;;;;5024464;28;20638;-76
2022/04/21 02:36:59;;;;;;;2.78;2.58;;;10.40;99.90;;;;;;5023191;28;20280;-76
2022/04/21 02:39:26;;;;;;;2.72;2.53;;;10.30;99.90;;;;;;5022909;28;20203;-76
2022/04/21 02:41:53;;;;;;;2.50;2.30;;;10.40;99.90;;;;;;5024706;28;20902;-75
2022/04/21 02:44:20;;;;;;;2.72;2.53;;;10.40;99.90;;;;;;5023995;28;20245;-77
2022/04/21 02:46:49;;;;;;;3.65;2.80;;;10.40;99.90;;;;;;5022833;28;20227;-75
2022/04/21 02:49:16;;;;;;;2.58;2.38;;;10.40;99.90;;;;;;5020875;28;20257;-77
2022/04/21 02:51:44;;;;;;;2.58;2.20;;;10.40;99.90;;;;;;5020989;28;20224;-77
2022/04/21 02:59:41;;;;;;;2.85;2.65;;;10.30;99.90;;;;;;5024004;28;20194;-76
2022/04/21 03:02:09;;;;;;;2.85;2.65;;;10.30;99.90;;;;;;5018333;28;20809;-76
2022/04/21 03:04:36;;;;;;;2.70;2.50;;;10.20;99.90;;;;;;5018469;28;20223;-76
2022/04/21 03:07:04;;;;;;;2.50;2.40;;;10.20;99.90;;;;;;5024089;28;20310;-76
2022/04/21 03:09:32;;;;;;;2.55;2.35;;;10.20;99.90;;;;;;5021127;28;20250;-77
2022/04/21 03:12:02;;;;;;;2.88;2.42;;;10.20;99.90;;;;;;5016868;28;20224;-76
2022/04/21 03:14:29;;;;;;;3.17;2.70;;;10.30;99.90;;;;;;5024944;28;20306;-77
2022/04/21 03:16:56;;;;;;;2.67;2.47;;;10.30;99.90;;;;;;5019595;28;20785;-75
2022/04/21 03:19:25;;;;;;;2.60;2.40;;;10.30;99.90;;;;;;5022870;28;20552;-75
2022/04/21 03:24:37;;;;;;;7.40;3.47;;;10.30;99.90;;;;;;5024139;28;20213;-76
2022/04/21 03:27:05;;;;;;;2.80;2.60;;;10.30;99.90;;;;;;5024552;28;20223;-77
2022/04/21 03:29:37;;;;;;;2.72;2.42;;;10.30;99.90;;;;;;5019461;28;20761;-76
2022/04/21 03:32:09;;;;;;;2.70;2.50;;;10.30;99.90;;;;;;5021744;28;20224;-76
2022/04/21 03:34:41;;;;;;;3.55;3.05;;;10.20;99.90;;;;;;5020871;28;20233;-76
2022/04/21 03:37:09;;;;;;;3.05;2.80;;;10.20;99.90;;;;;;5024067;28;20232;-76
2022/04/21 03:39:36;;;;;;;2.97;2.67;;;10.20;99.90;;;;;;5024226;28;20200;-76
2022/04/21 03:42:04;;;;;;;3.17;2.88;;;10.10;99.90;;;;;;5021757;28;20219;-76
2022/04/21 03:47:17;;;;;;;2.55;2.35;;;10.10;99.90;;;;;;5001116;28;20247;-81
2022/04/21 03:49:45;;;;;;;2.85;2.65;;;10.10;99.90;;;;;;4998474;28;20200;-77
2022/04/21 03:52:13;;;;;;;3.40;2.67;;;10.00;99.90;;;;;;5001239;28;20289;-74
2022/04/21 03:54:40;;;;;;;2.65;2.45;;;10.00;99.90;;;;;;5002377;28;20201;-76
2022/04/21 03:57:08;;;;;;;3.33;3.10;;;10.00;99.90;;;;;;4984089;28;20368;-75
2022/04/21 03:59:36;;;;;;;2.90;2.70;;;9.90;99.90;;;;;;4984494;28;20204;-76
2022/04/21 04:02:04;;;;;;;3.38;2.75;;;9.90;99.90;;;;;;4987338;28;20578;-78
2022/04/21 04:04:31;;;;;;;2.38;2.28;;;9.90;99.90;;;;;;4985746;28;20208;-76
2022/04/21 04:12:33;;;;;;;2.97;2.78;;;10.00;99.90;;;;;;4987357;28;20263;-75
2022/04/21 04:15:00;;;;;;;2.80;2.60;;;10.00;99.90;;;;;;4985511;28;20193;-77
2022/04/21 04:17:28;;;;;;;2.97;2.70;;;10.00;99.90;;;;;;4985498;28;20221;-76
2022/04/21 04:19:55;;;;;;;2.88;2.67;;;10.00;99.90;;;;;;4982901;28;20205;-73
2022/04/21 04:22:24;;;;;;;2.78;2.58;;;10.00;99.90;;;;;;5004057;28;21144;-78
2022/04/21 04:24:53;;;;;;;2.67;2.47;;;10.00;99.90;;;;;;4985348;28;20193;-76
2022/04/21 04:27:20;;;;;;;2.90;2.65;;;9.90;99.90;;;;;;4989289;28;20250;-76
2022/04/21 04:29:47;;;;;;;3.03;2.72;;;10.00;99.90;;;;;;4987122;28;20232;-74
2022/04/21 04:32:15;;;;;;;2.38;2.28;;;10.00;99.90;;;;;;4986727;28;20224;-78
2022/04/21 04:34:43;;;;;;;2.83;2.60;;;10.00;99.90;;;;;;4985935;28;20220;-77
2022/04/21 04:37:10;;;;;;;2.85;2.65;;;10.00;99.90;;;;;;4987821;28;20243;-79
2022/04/21 04:39:38;;;;;;;2.95;2.72;;;10.00;99.90;;;;;;4986457;28;20251;-79
2022/04/21 04:42:17;;;;;;;2.92;2.72;;;10.00;99.90;;;;;;4985481;28;20220;-79
2022/04/21 04:44:44;;;;;;;3.03;2.20;;;10.00;99.90;;;;;;4986176;28;20553;-76
2022/04/21 04:47:10;;;;;;;2.70;2.50;;;10.10;99.90;;;;;;4982910;28;20229;-77
2022/04/21 04:49:37;;;;;;;2.63;2.42;;;10.00;99.90;;;;;;4987800;28;20288;-76
2022/04/21 04:52:05;;;;;;;3.25;2.85;;;10.10;99.90;;;;;;4984218;28;20593;-75
2022/04/21 04:54:32;;;;;;;4.25;2.65;;;10.00;99.90;;;;;;4984841;28;20225;-75
2022/04/21 04:57:01;;;;;;;3.00;2.80;;;10.00;99.90;;;;;;4984380;28;20279;-75
2022/04/21 04:59:29;;;;;;;3.00;2.72;;;9.90;99.90;;;;;;4983109;28;20204;-75
2022/04/21 05:01:56;;;;;;;3.70;3.40;;;9.90;99.90;;;;;;4985245;28;20308;-73
2022/04/21 05:04:25;;;;;;;3.22;3.03;;;9.90;99.90;;;;;;4985838;28;20251;-75
2022/04/21 05:06:53;;;;;;;3.20;2.90;;;10.00;99.90;;;;;;4980251;28;20228;-75
2022/04/21 05:09:22;;;;;;;3.63;3.33;;;10.00;99.90;;;;;;4984981;28;20205;-76
2022/04/21 05:11:51;;;;;;;3.42;3.10;;;10.10;99.90;;;;;;4982804;28;20575;-77
2022/04/21 05:14:20;;;;;;;3.50;3.20;;;10.10;99.90;;;;;;4991019;28;20279;-81
2022/04/21 05:16:48;;;;;;;3.35;3.15;;;10.10;99.90;;;;;;4991576;28;20224;-77
2022/04/21 05:19:17;;;;;;;3.90;3.47;;;10.10;99.90;;;;;;4988788;28;20600;-77
2022/04/21 05:21:45;;;;;;;3.67;3.38;;;10.10;99.90;;;;;;4991000;28;20662;-74
2022/04/21 05:24:13;;;;;;;5.10;3.53;;;10.10;99.90;;;;;;4992417;28;20664;-76
2022/04/21 05:26:41;;;;;;;3.60;3.30;;;10.10;99.90;;;;;;4990152;28;20652;-75
2022/04/21 05:31:56;;;;;;;3.88;3.47;;;10.00;99.90;;;;;;4993118;28;20209;-78
2022/04/21 05:34:25;;;;;;;5.47;3.38;;;10.00;99.90;;;;;;4998739;28;20267;-78
2022/04/21 05:36:53;;;;;;;4.75;3.50;;;9.90;99.90;;;;;;4994708;28;20255;-79
2022/04/21 05:39:21;;;;;;;4.00;3.58;;;9.90;99.90;;;;;;4995908;28;20283;-81
2022/04/21 05:41:49;;;;;;;7.28;3.25;;;9.90;99.90;;;;;;4985370;28;20355;-75
2022/04/21 05:44:16;;;;;;;5.82;3.63;;;9.80;99.90;;;;;;4989786;28;20224;-78
2022/04/21 05:46:44;;;;;;;5.47;3.53;;;9.80;99.90;;;;;;4990725;28;20259;-75
2022/04/21 05:49:13;;;;;;;5.07;3.83;;;9.80;99.90;;;;;;4990271;28;20620;-76
2022/04/21 05:51:42;;;;;;;4.05;3.75;;;9.80;99.90;;;;;;4988107;28;20257;-76
2022/04/21 05:54:09;;;;;;;4.03;3.72;;;9.80;99.90;;;;;;4983600;28;20216;-77
2022/04/21 05:56:37;;;;;;;3.75;3.47;;;9.90;99.90;;;;;;4989058;28;20213;-78
2022/04/21 05:59:04;;;;;;;6.97;3.30;;;9.90;99.90;;;;;;4985482;28;20263;-76
2022/04/21 06:01:32;;;;;;;4.45;4.05;;;10.00;99.90;;;;;;4989019;28;20205;-76
2022/04/21 06:03:59;;;;;;;4.10;3.80;;;10.00;99.90;;;;;;4987720;28;20652;-76
2022/04/21 06:06:27;;;;;;;4.05;3.65;;;10.00;99.90;;;;;;4989878;28;20271;-76
2022/04/21 06:08:54;;;;;;;5.85;4.60;;;10.00;99.90;;;;;;4991306;28;20201;-75
2022/04/21 06:11:22;;;;;;;6.38;4.20;;;10.10;99.90;;;;;;4986151;28;20211;-76
2022/04/21 06:13:51;;;;;;;6.20;4.28;;;10.10;99.90;;;;;;4994606;28;20212;-73
2022/04/21 06:16:19;;;;;;;4.30;4.00;;;10.10;99.90;;;;;;4985977;28;20259;-74
2022/04/21 06:18:46;;;;;;;4.75;4.35;;;10.20;99.90;;;;;;4986249;28;20221;-75
2022/04/21 06:21:13;;;;;;;3.90;3.60;;;10.20;99.90;;;;;;4989359;28;20656;-75
2022/04/21 06:23:42;;;;;;;4.43;4.13;;;10.30;99.90;;;;;;4982739;28;20245;-77
2022/04/21 06:26:10;;;;;;;5.00;4.00;;;10.30;99.90;;;;;;4985063;28;20223;-76
2022/04/21 06:28:37;;;;;;;4.43;3.92;;;10.30;99.90;;;;;;4984295;28;20225;-73
2022/04/21 06:31:05;;;;;;;6.93;3.78;;;10.30;99.90;;;;;;4984719;28;20260;-75
2022/04/21 06:33:32;;;;;;;4.65;3.88;;;10.30;99.90;;;;;;4985206;28;20221;-77
2022/04/21 06:35:59;;;;;;;3.70;3.40;;;10.30;99.90;;;;;;4987364;28;20224;-75
2022/04/21 06:38:26;;;;;;;4.57;4.03;;;10.30;99.90;;;;;;4983250;28;20244;-75
2022/04/21 06:40:55;;;;;;;3.58;3.28;;;10.40;99.90;;;;;;4986328;28;20194;-78
2022/04/21 06:48:52;;;;;;;4.57;4.18;;;10.60;99.90;;;;;;4983533;28;20307;-76
2022/04/21 06:51:19;;;;;;;4.00;3.53;;;10.60;99.90;;;;;;4978618;28;20205;-77
2022/04/21 06:53:46;;;;;;;4.30;3.92;;;10.50;99.90;;;;;;4985091;28;20461;-77
2022/04/21 06:56:15;;;;;;;4.50;3.78;;;10.40;99.90;;;;;;4982747;28;20289;-75
2022/04/21 06:58:42;;;;;;;5.85;4.13;;;10.40;99.90;;;;;;4976567;28;20222;-76
2022/04/21 07:01:09;;;;;;;4.00;3.70;;;10.50;99.90;;;;;;4985987;28;20193;-75
2022/04/21 07:03:36;;;;;;;3.78;3.38;;;10.60;99.90;;;;;;4983028;28;20213;-75
2022/04/21 07:06:03;;;;;;;4.50;3.70;;;10.70;99.90;;;;;;4977845;28;20224;-74
2022/04/21 07:08:31;;;;;;;6.85;4.18;;;10.80;99.90;;;;;;4989846;28;20298;-77
2022/04/21 07:10:58;;;;;;;4.05;3.75;;;10.80;99.90;;;;;;4985236;28;20253;-79
2022/04/21 07:13:26;;;;;;;8.25;4.18;;;10.90;99.90;;;;;;4983995;28;20703;-75
2022/04/21 07:15:54;;;;;;;6.93;4.15;;;10.90;99.90;;;;;;4983211;28;20408;-77
2022/04/21 07:18:21;;;;;;;3.80;3.50;;;10.80;99.90;;;;;;4978835;28;20271;-77
2022/04/21 07:20:48;;;;;;;4.30;4.00;;;10.90;99.90;;;;;;4983935;28;20198;-77
2022/04/21 07:23:15;;;;;;;4.68;4.13;;;10.90;99.90;;;;;;4987594;28;20735;-77
2022/04/21 07:25:42;;;;;;;6.47;4.93;;;10.90;99.90;;;;;;4985154;28;20485;-77
2022/04/21 07:28:10;;;;;;;4.22;3.70;;;10.90;99.90;;;;;;4979700;28;20702;-75
2022/04/21 07:30:39;;;;;;;5.13;4.30;;;11.00;99.90;;;;;;4983937;28;20201;-78
2022/04/21 07:33:06;;;;;;;5.22;4.53;;;11.00;99.90;;;;;;4985486;28;20217;-76
2022/04/21 07:35:34;;;;;;;7.60;4.25;;;11.10;99.90;;;;;;4986871;28;20299;-77
2022/04/21 07:38:01;;;;;;;6.70;5.28;;;11.20;99.90;;;;;;4988297;28;20228;-78
2022/04/21 07:40:28;;;;;;;6.53;4.00;;;11.20;99.90;;;;;;4985444;28;20213;-79
2022/04/21 07:42:55;;;;;;;5.22;4.70;;;11.20;99.90;;;;;;4986025;28;20614;-76
2022/04/21 07:45:22;;;;;;;5.50;4.40;;;11.20;99.90;;;;;;4985453;28;20228;-78
2022/04/21 07:47:50;;;;;;;5.88;5.28;;;11.20;99.90;;;;;;4987042;28;20248;-77
2022/04/21 07:50:17;;;;;;;6.93;4.80;;;11.30;99.90;;;;;;4984502;28;20204;-78
2022/04/21 07:55:30;;;;;;;6.60;4.72;;;11.40;99.90;;;;;;4988550;28;20451;-77
2022/04/21 07:57:57;;;;;;;4.38;3.97;;;11.40;99.90;;;;;;4989832;28;20224;-76
2022/04/21 08:00:25;;;;;;;5.60;4.47;;;11.40;99.90;;;;;;4986982;28;20204;-79
2022/04/21 08:02:53;;;;;;;4.85;4.13;;;11.40;99.90;;;;;;4987278;28;20216;-77
2022/04/21 08:05:22;;;;;;;4.40;4.00;;;11.50;99.90;;;;;;4984670;28;20317;-81
2022/04/21 08:07:50;;;;;;;5.13;4.60;;;11.50;99.90;;;;;;4987326;28;20248;-77
2022/04/21 08:10:17;;;;;;;4.80;4.35;;;11.60;99.90;;;;;;4979630;28;20208;-74
2022/04/21 08:12:45;;;;;;;6.93;4.90;;;11.60;99.90;;;;;;4984181;28;20501;-76
2022/04/21 08:15:14;;;;;;;6.43;4.78;;;11.60;99.90;;;;;;4987145;28;20229;-78
2022/04/21 08:17:41;;;;;;;4.85;4.40;;;11.70;99.90;;;;;;4982203;28;20228;-76
2022/04/21 08:20:11;;;;;;;5.57;5.07;;;11.70;99.90;;;;;;4984774;28;20219;-76
2022/04/21 08:22:39;;;;;;;5.55;5.03;;;11.80;99.90;;;;;;4990350;28;20316;-78
2022/04/21 08:33:22;;;;;;;6.85;6.15;;;11.90;99.90;;;;;;4984073;28;20239;-78
2022/04/21 08:35:57;;;;;;;5.63;4.45;;;12.00;99.90;;;;;;4988028;28;20220;-79
2022/04/21 08:38:25;;;;;;;5.30;4.70;;;12.10;99.90;;;;;;4982970;28;20589;-77
2022/04/21 08:40:54;;;;;;;6.22;5.18;;;12.30;99.90;;;;;;4986216;28;20208;-76
2022/04/21 08:43:22;;;;;;;6.05;5.40;;;12.50;99.90;;;;;;4989455;28;20228;-77
2022/04/21 08:45:50;;;;;;;5.93;5.32;;;12.50;99.90;;;;;;4979588;28;20229;-77
2022/04/21 08:48:20;;;;;;;12.02;6.18;;;12.60;99.90;;;;;;4995043;28;20221;-78
2022/04/21 08:50:47;;;;;;;9.35;6.55;;;12.60;99.90;;;;;;4992062;28;20197;-77
2022/04/21 08:53:17;;;;;;;7.05;6.38;;;12.60;99.90;;;;;;4989951;28;20220;-75
2022/04/21 08:55:44;;;;;;;6.53;5.93;;;12.50;99.90;;;;;;4991531;28;20229;-78
2022/04/21 08:58:12;;;;;;;8.77;6.88;;;12.60;99.90;;;;;;4996061;28;20220;-79
2022/04/21 09:00:40;;;;;;;7.13;6.32;;;12.60;99.90;;;;;;4989964;28;20287;-77
2022/04/21 09:03:08;;;;;;;7.28;5.68;;;12.70;99.90;;;;;;4983361;28;20771;-77
2022/04/21 09:05:36;;;;;;;7.95;5.45;;;12.80;99.90;;;;;;4988374;28;20247;-78
2022/04/21 09:08:03;;;;;;;6.40;5.60;;;12.60;99.90;;;;;;4995535;28;20228;-76
2022/04/21 09:10:33;;;;;;;8.00;6.03;;;12.50;99.90;;;;;;4995216;28;20436;-78
2022/04/21 09:13:02;;;;;;;6.40;5.15;;;12.50;99.90;;;;;;4991806;28;20221;-78
2022/04/21 09:15:31;;;;;;;7.95;6.78;;;12.40;99.90;;;;;;4987508;28;20229;-78
2022/04/21 09:18:01;;;;;;;6.05;5.53;;;12.40;99.90;;;;;;4988795;28;20221;-76
2022/04/21 09:20:31;;;;;;;10.27;6.35;;;12.30;99.90;;;;;;4986118;28;20204;-78
2022/04/21 09:23:00;;;;;;;6.70;5.70;;;12.30;99.90;;;;;;4990437;28;20225;-77
2022/04/21 09:25:29;;;;;;;7.45;5.90;;;12.40;99.90;;;;;;4987013;28;20288;-79
2022/04/21 09:27:58;;;;;;;7.82;7.00;;;12.30;99.90;;;;;;4990307;28;20425;-75
2022/04/21 09:30:26;;;;;;;7.75;6.68;;;12.30;99.90;;;;;;4993244;28;20594;-78
2022/04/21 09:32:56;;;;;;;8.82;6.05;;;12.30;99.90;;;;;;4992534;28;20224;-77
2022/04/21 09:35:27;;;;;;;8.90;6.65;;;12.40;99.90;;;;;;4990715;28;20699;-77
2022/04/21 09:37:56;;;;;;;7.80;7.10;;;12.40;99.90;;;;;;4988517;28;20241;-80
2022/04/21 09:40:25;;;;;;;7.32;6.63;;;12.40;99.90;;;;;;4986107;28;20198;-79
2022/04/21 09:42:59;;;;;;;6.32;5.70;;;12.50;99.90;;;;;;4990910;28;20227;-79
2022/04/21 09:48:02;;;;;;;6.78;6.07;;;12.60;99.90;;;;;;5014955;28;20278;-77
2022/04/21 09:50:33;;;;;;;6.85;6.15;;;12.70;99.90;;;;;;5022636;28;20207;-76
2022/04/21 09:53:03;;;;;;;6.20;5.60;;;12.80;99.90;;;;;;5030279;28;20219;-77
2022/04/21 09:55:31;;;;;;;6.07;5.55;;;13.00;99.90;;;;;;5024921;28;20239;-77
2022/04/21 09:58:07;;;;;;;7.00;6.40;;;13.00;99.90;;;;;;4996416;28;20779;-75
2022/04/21 10:00:35;;;;;;;7.65;6.57;;;13.00;99.90;;;;;;5005105;28;20197;-76
2022/04/21 10:03:04;;;;;;;8.45;7.15;;;13.10;99.90;;;;;;5006791;28;20270;-75
2022/04/21 10:05:32;;;;;;;7.20;6.32;;;13.00;99.90;;;;;;5006492;28;20193;-76
2022/04/21 10:08:01;;;;;;;6.57;5.70;;;13.00;99.90;;;;;;5010458;28;20301;-76
2022/04/21 10:10:30;;;;;;;6.50;5.78;;;13.00;99.90;;;;;;5009914;28;20659;-76
2022/04/21 10:12:59;;;;;;;9.13;6.70;;;13.00;99.90;;;;;;4998428;28;20228;-77
2022/04/21 10:15:29;;;;;;;8.90;7.00;;;12.90;99.90;;;;;;5003793;28;20699;-77
2022/04/21 10:17:56;;;;;;;10.10;6.70;;;12.80;99.90;;;;;;5002473;28;20230;-75
2022/04/21 10:20:24;;;;;;;7.70;6.97;;;12.80;99.90;;;;;;4998509;28;20602;-76
2022/04/21 10:22:51;;;;;;;8.98;7.20;;;12.80;99.90;;;;;;5006633;28;20228;-76
2022/04/21 10:25:19;;;;;;;7.85;7.10;;;12.80;99.90;;;;;;5008183;28;20281;-77
2022/04/21 10:27:49;;;;;;;7.72;6.88;;;12.80;99.90;;;;;;5006701;28;20644;-76
2022/04/21 10:30:21;;;;;;;7.57;6.72;;;12.80;99.90;;;;;;5002602;28;20204;-77
2022/04/21 10:32:54;;;;;;;10.98;6.78;;;12.90;99.90;;;;;;5006915;28;20197;-76
2022/04/21 10:35:52;;;;;;;6.93;6.25;;;13.00;99.90;;;;;;5005452;28;20215;-77
2022/04/21 10:38:21;;;;;;;6.47;5.88;;;13.10;99.90;;;;;;4991485;28;20224;-76
2022/04/21 10:41:00;;;;;;;7.38;5.25;;;13.10;99.90;;;;;;4998828;28;20677;-77
2022/04/21 10:44:03;;;;;;;6.97;5.55;;;13.30;99.90;;;;;;5001904;28;20226;-76
2022/04/21 10:46:31;;;;;;;5.75;5.25;;;13.40;99.90;;;;;;5000852;28;20308;-77
2022/04/21 10:49:00;;;;;;;6.85;5.55;;;13.60;99.90;;;;;;5010672;28;20216;-76
2022/04/21 10:58:47;;;;;;;7.50;6.65;;;14.20;99.90;;;;;;5012262;28;20978;-76
2022/04/21 11:01:15;;;;;;;5.72;5.22;;;14.40;99.90;;;;;;5006077;28;20696;-77
2022/04/21 11:03:44;;;;;;;6.47;5.82;;;14.40;99.90;;;;;;5001212;28;20227;-79
2022/04/21 11:06:14;;;;;;;6.50;5.88;;;14.50;99.90;;;;;;5014643;28;20238;-77
2022/04/21 11:08:41;;;;;;;8.82;4.75;;;14.60;99.90;;;;;;5019749;28;20713;-78
2022/04/21 11:11:09;;;;;;;7.18;6.47;;;14.60;99.90;;;;;;5030440;28;20652;-77
2022/04/21 11:13:52;;;;;;;7.40;6.00;;;14.70;99.90;;;;;;5026100;28;20212;-80
2022/04/21 11:16:47;;;;;;;6.50;5.13;;;14.60;99.90;;;;;;5013319;28;20220;-76
2022/04/21 11:19:56;;;;;;;6.93;5.82;;;14.70;99.90;;;;;;5016198;28;20278;-77
2022/04/21 11:22:40;;;;;;;6.68;5.85;;;14.80;99.90;;;;;;4904960;29;20204;-76
2022/04/21 11:25:08;;;;;;;6.97;5.68;;;14.80;99.90;;;;;;4925912;29;20310;-77
2022/04/21 11:27:42;;;;;;;7.53;5.93;;;14.70;99.90;;;;;;4990200;28;20215;-77
2022/04/21 11:30:12;;;;;;;9.45;6.20;;;14.50;99.90;;;;;;5008334;28;20247;-77
2022/04/21 11:32:40;;;;;;;9.20;6.72;;;14.40;99.90;;;;;;5015555;28;20204;-77
2022/04/21 11:35:10;;;;;;;10.25;6.28;;;14.40;99.90;;;;;;5012669;28;20729;-76
2022/04/21 11:37:53;;;;;;;5.70;5.15;;;14.40;99.90;;;;;;5021341;28;20212;-78
2022/04/21 11:40:35;;;;;;;6.50;5.25;;;14.50;99.90;;;;;;5011087;28;20597;-77
2022/04/21 11:43:05;;;;;;;6.38;5.38;;;14.60;99.90;;;;;;5024851;28;20207;-76
2022/04/21 11:45:36;;;;;;;6.25;5.65;;;14.60;99.90;;;;;;5022645;28;20196;-77
2022/04/21 11:48:11;;;;;;;7.82;5.63;;;14.50;99.90;;;;;;5022646;28;20192;-78
2022/04/21 11:50:38;;;;;;;4.38;4.05;;;14.40;99.90;;;;;;5028870;28;20277;-78
2022/04/21 11:53:15;;;;;;;5.35;4.72;;;14.40;99.90;;;;;;5040047;28;20850;-77
2022/04/21 11:55:42;;;;;;;7.40;4.80;;;14.60;99.90;;;;;;5039446;28;20247;-79
2022/04/21 11:58:09;;;;;;;4.50;4.10;;;14.60;99.90;;;;;;5037217;28;20204;-78
2022/04/21 12:08:54;;;;;;;5.53;4.97;;;15.50;99.90;;;;;;5035242;28;20217;-76
2022/04/21 12:11:22;;;;;;;6.38;5.22;;;15.70;99.90;;;;;;5039209;28;20615;-77
2022/04/21 12:13:50;;;;;;;5.47;4.40;;;15.70;99.90;;;;;;5034143;28;20250;-76
2022/04/21 12:16:42;;;;;;;6.35;5.55;;;15.70;99.90;;;;;;5026773;28;20222;-76
2022/04/21 12:19:28;;;;;;;6.25;4.55;;;15.50;99.90;;;;;;5024077;28;20220;-77
2022/04/21 12:22:00;;;;;;;7.88;4.95;;;15.40;99.90;;;;;;5026266;28;20203;-79
2022/04/21 12:24:31;;;;;;;7.70;5.55;;;15.30;99.90;;;;;;5031110;28;20242;-80
2022/04/21 12:26:59;;;;;;;5.70;5.10;;;15.10;99.90;;;;;;5037643;28;20223;-78
2022/04/21 12:29:29;;;;;;;6.45;4.75;;;15.10;99.90;;;;;;5029415;28;20228;-77
2022/04/21 12:31:58;;;;;;;5.15;4.68;;;15.10;99.90;;;;;;5030790;28;20232;-80
2022/04/21 12:34:27;;;;;;;7.50;5.30;;;15.00;99.90;;;;;;5030318;28;20288;-76
2022/04/21 12:37:03;;;;;;;10.07;5.88;;;15.00;99.90;;;;;;5027002;28;20359;-76
2022/04/21 12:40:02;;;;;;;6.38;3.97;;;15.10;99.90;;;;;;5023112;28;20218;-78
2022/04/21 12:42:30;;;;;;;8.02;5.00;;;15.20;99.90;;;;;;4992084;28;20347;-77
2022/04/21 12:45:03;;;;;;;6.38;4.80;;;15.20;99.90;;;;;;5034737;28;20274;-79
2022/04/21 12:47:45;;;;;;;6.03;5.43;;;15.20;99.90;;;;;;5013963;28;20224;-77
2022/04/21 12:50:21;;;;;;;6.93;5.20;;;15.20;99.90;;;;;;5034814;28;20223;-78
2022/04/21 12:52:56;;;;;;;5.25;4.68;;;15.10;99.90;;;;;;5024464;28;20191;-76
2022/04/21 12:55:56;;;;;;;7.50;5.25;;;15.10;99.90;;;;;;5034662;28;20309;-77
2022/04/21 12:58:32;;;;;;;4.97;4.25;;;15.10;99.90;;;;;;5030330;28;20196;-78
2022/04/21 13:01:06;;;;;;;5.07;4.38;;;15.00;99.90;;;;;;5023981;28;20208;-77
2022/04/21 13:03:51;;;;;;;4.68;4.28;;;15.10;99.90;;;;;;5034721;28;20290;-78
2022/04/21 13:06:33;;;;;;;6.70;4.30;;;15.30;99.90;;;;;;5025792;28;20238;-77
2022/04/21 13:12:00;;;;;;;5.25;4.15;;;15.50;99.90;;;;;;5027203;28;20198;-79
2022/04/21 13:14:44;;;;;;;8.05;4.88;;;15.60;99.90;;;;;;4978559;28;20215;-77
2022/04/21 13:17:11;;;;;;;4.93;4.43;;;15.60;99.90;;;;;;5033018;28;20627;-78
2022/04/21 13:19:52;;;;;;;5.38;4.88;;;15.60;99.90;;;;;;5034818;28;20214;-76
2022/04/21 13:22:36;;;;;;;5.53;4.68;;;15.70;99.90;;;;;;5031042;28;20199;-78
2022/04/21 13:25:12;;;;;;;4.55;4.15;;;15.60;99.90;;;;;;5030361;28;20216;-79
2022/04/21 13:28:15;;;;;;;5.72;4.35;;;15.60;99.90;;;;;;5037967;28;20579;-76
2022/04/21 13:34:00;;;;;;;4.78;4.05;;;15.60;99.90;;;;;;4997081;28;20276;-78
2022/04/21 13:36:50;;;;;;;4.53;4.13;;;15.70;99.90;;;;;;4998182;28;20221;-76
2022/04/21 13:39:18;;;;;;;5.78;4.07;;;15.90;99.90;;;;;;5027463;28;20697;-78
2022/04/21 13:41:45;;;;;;;3.88;3.35;;;15.90;99.90;;;;;;5032473;28;20200;-78
2022/04/21 13:44:14;;;;;;;3.95;3.55;;;16.00;99.90;;;;;;5032238;28;20229;-76
2022/04/21 13:46:42;;;;;;;3.80;3.50;;;16.20;99.90;;;;;;5021293;28;20219;-79
2022/04/21 13:49:11;;;;;;;4.60;3.95;;;16.30;99.90;;;;;;5031902;28;20269;-77
2022/04/21 13:51:38;;;;;;;4.22;3.53;;;16.30;99.90;;;;;;5036926;28;20277;-77
2022/04/21 13:54:05;;;;;;;4.10;3.60;;;16.30;99.90;;;;;;5027064;28;20235;-78
2022/04/21 13:56:33;;;;;;;5.63;4.07;;;16.20;99.90;;;;;;5035370;28;20231;-79
2022/04/21 13:59:00;;;;;;;4.22;3.70;;;16.10;99.90;;;;;;5037342;28;20220;-78
2022/04/21 14:01:30;;;;;;;5.03;4.53;;;16.10;99.90;;;;;;5030902;28;20253;-77
2022/04/21 14:03:57;;;;;;;7.03;4.43;;;16.00;99.90;;;;;;5043010;28;20228;-77
2022/04/21 14:06:25;;;;;;;3.90;3.60;;;16.00;99.90;;;;;;5038863;28;20697;-76
2022/04/21 14:08:52;;;;;;;4.50;4.10;;;15.90;99.90;;;;;;5034416;28;20277;-77